Time;durP1;ratioP1;P1;durP2;ratioP2;P2;SDS_P1;SDS_P2;PMS_P1;PMS_P2;Temp;Humidity;BMP_temperature;BMP_pressure;BME280_temperature;BME280_humidity;BME280_pressure;Samples;Min_cycle;Max_cycle;Signal;HPM_P1;HPM_P2
2022/04/14 00:01:59;;;;;;;13.00;5.32;;;;;;;10.33;86.45;98724.38;5012970;28;20076;-68
2022/04/14 00:04:25;;;;;;;10.98;6.22;;;;;;;10.31;86.54;98726.44;5006446;28;20049;-68
2022/04/14 00:06:50;;;;;;;9.38;5.00;;;;;;;10.31;86.33;98726.44;5012001;28;20025;-69
2022/04/14 00:09:16;;;;;;;8.73;5.43;;;;;;;9.99;87.54;98720.69;5013030;28;20083;-68
2022/04/14 00:11:41;;;;;;;10.00;5.00;;;;;;;9.79;88.38;98728.69;5006835;28;20620;-68
2022/04/14 00:14:07;;;;;;;8.93;4.90;;;;;;;9.57;90.33;98708.22;5011578;28;20091;-68
2022/04/14 00:16:33;;;;;;;9.73;4.40;;;;;;;9.62;91.19;98725.50;5013976;28;20456;-68
2022/04/14 00:18:58;;;;;;;8.30;4.28;;;;;;;9.50;91.82;98721.69;5010046;28;20384;-67
2022/04/14 00:21:23;;;;;;;8.10;4.22;;;;;;;9.48;91.85;98725.59;5011212;28;20033;-67
2022/04/14 00:23:49;;;;;;;8.40;3.90;;;;;;;9.43;91.97;98729.75;5011047;28;20109;-67
2022/04/14 00:26:14;;;;;;;10.75;3.88;;;;;;;9.32;91.92;98727.56;5007452;28;20026;-68
2022/04/14 00:28:40;;;;;;;8.27;3.70;;;;;;;9.30;92.15;98723.41;5013845;28;20080;-68
2022/04/14 00:31:05;;;;;;;9.50;4.15;;;;;;;9.37;92.31;98724.28;5013713;28;20176;-68
2022/04/14 00:33:32;;;;;;;9.40;4.40;;;;;;;9.33;93.29;98729.28;5005476;28;20039;-68
2022/04/14 00:35:57;;;;;;;7.10;4.72;;;;;;;9.32;93.08;98713.25;5013609;28;20029;-68
2022/04/14 00:38:23;;;;;;;7.25;4.40;;;;;;;9.28;93.96;98720.09;5002329;28;20399;-68
2022/04/14 00:40:49;;;;;;;9.70;4.78;;;;;;;9.15;94.24;98693.84;5008459;28;20037;-69
2022/04/14 00:43:16;;;;;;;6.85;4.10;;;;;;;9.24;94.77;98719.63;5013950;28;20026;-69
2022/04/14 00:45:42;;;;;;;8.23;3.85;;;;;;;9.20;94.76;98718.38;5031083;28;20052;-69
2022/04/14 00:48:08;;;;;;;7.35;3.90;;;;;;;9.20;94.68;98699.47;5033488;28;20022;-69
2022/04/14 00:50:34;;;;;;;6.53;4.55;;;;;;;9.39;93.55;98727.63;5024743;28;20080;-69
2022/04/14 00:52:59;;;;;;;8.05;4.00;;;;;;;9.45;92.29;98726.84;5022668;28;20037;-70
2022/04/14 00:55:25;;;;;;;8.20;4.32;;;;;;;9.29;92.99;98722.56;5025555;28;20022;-69
2022/04/14 00:57:51;;;;;;;8.27;4.75;;;;;;;9.24;94.22;98735.00;5026850;28;20093;-70
2022/04/14 01:00:16;;;;;;;6.93;4.72;;;;;;;9.15;94.57;98742.41;5031927;28;20105;-68
2022/04/14 01:02:42;;;;;;;5.35;3.72;;;;;;;8.91;93.82;98722.94;5024413;28;20032;-68
2022/04/14 01:05:09;;;;;;;10.57;4.32;;;;;;;8.88;94.43;98736.81;5011522;28;20044;-69
2022/04/14 01:07:35;;;;;;;15.00;4.65;;;;;;;8.71;96.49;98740.78;5012896;28;20022;-68
2022/04/14 01:10:02;;;;;;;9.43;4.28;;;;;;;8.82;95.81;98736.72;5008575;28;20034;-68
2022/04/14 01:12:28;;;;;;;9.52;4.13;;;;;;;8.61;95.80;98724.09;5004902;28;20029;-68
2022/04/14 01:14:53;;;;;;;12.30;4.38;;;;;;;8.64;96.51;98748.81;5009521;28;20030;-68
2022/04/14 01:17:19;;;;;;;10.15;4.43;;;;;;;8.57;98.01;98750.63;5010193;28;20022;-68
2022/04/14 01:19:44;;;;;;;8.00;3.95;;;;;;;8.63;98.00;98751.72;5014597;28;20096;-68
2022/04/14 01:22:24;;;;;;;6.43;3.65;;;;;;;8.71;97.42;98767.75;5010885;28;20022;-68
2022/04/14 01:24:53;;;;;;;8.55;4.32;;;;;;;8.54;97.50;98762.63;5009137;28;20026;-67
2022/04/14 01:27:18;;;;;;;7.97;3.65;;;;;;;8.51;98.15;98740.56;5015013;28;20075;-68
2022/04/14 01:29:46;;;;;;;6.57;3.92;;;;;;;8.72;97.75;98766.72;5011407;28;20526;-69
2022/04/14 01:32:11;;;;;;;9.45;4.38;;;;;;;8.66;97.61;98754.00;5008696;28;20048;-69
2022/04/14 01:34:36;;;;;;;8.10;5.03;;;;;;;8.81;98.61;98749.41;5014260;28;20480;-68
2022/04/14 01:37:02;;;;;;;6.15;4.38;;;;;;;8.95;98.07;98761.97;5013955;28;20033;-69
2022/04/14 01:39:28;;;;;;;13.63;4.95;;;;;;;9.08;97.07;98773.91;5015373;28;20032;-67
2022/04/14 01:41:53;;;;;;;6.85;4.65;;;;;;;9.03;97.35;98765.56;5009777;28;20088;-68
2022/04/14 01:44:19;;;;;;;10.75;4.72;;;;;;;8.88;98.05;98765.63;5014584;28;20472;-69
2022/04/14 01:46:45;;;;;;;10.57;4.57;;;;;;;8.80;98.44;98771.16;5012223;28;20125;-68
2022/04/14 01:49:11;;;;;;;10.73;4.97;;;;;;;8.74;98.95;98776.28;5033109;28;20036;-70
2022/04/14 01:51:37;;;;;;;7.03;4.22;;;;;;;8.62;99.68;98780.53;5080216;23;20040;-70
2022/04/14 01:54:03;;;;;;;7.10;4.05;;;;;;;8.58;99.29;98783.81;5063179;28;20048;-70
2022/04/14 01:56:29;;;;;;;8.05;4.15;;;;;;;8.45;99.73;98785.31;5070590;28;20492;-69
2022/04/14 01:58:55;;;;;;;9.18;5.05;;;;;;;8.43;100.00;98790.06;5068209;28;20134;-68
2022/04/14 02:01:21;;;;;;;6.13;3.90;;;;;;;8.15;98.58;98770.19;5071640;28;20028;-70
2022/04/14 02:03:47;;;;;;;8.75;3.78;;;;;;;7.86;98.83;98753.06;5063223;28;20480;-69
2022/04/14 02:06:13;;;;;;;8.52;4.72;;;;;;;7.95;100.00;98800.44;5075801;28;20078;-69
2022/04/14 02:08:38;;;;;;;6.63;4.18;;;;;;;7.88;100.00;98794.09;5071090;28;20031;-69
2022/04/14 02:11:04;;;;;;;6.15;4.38;;;;;;;7.84;100.00;98788.25;5061693;28;20039;-69
2022/04/14 02:13:30;;;;;;;10.00;4.50;;;;;;;7.71;100.00;98777.31;5067680;28;20029;-70
2022/04/14 02:15:55;;;;;;;9.65;4.30;;;;;;;7.96;100.00;98758.16;5080088;28;20066;-70
2022/04/14 02:18:20;;;;;;;8.77;4.47;;;;;;;8.34;100.00;98793.88;5071938;28;20090;-69
2022/04/14 02:20:46;;;;;;;7.03;4.43;;;;;;;8.30;99.94;98793.41;5058872;28;20074;-70
2022/04/14 02:23:11;;;;;;;6.93;4.18;;;;;;;8.22;99.57;98806.16;5059162;28;20020;-70
2022/04/14 02:25:36;;;;;;;6.30;3.78;;;;;;;8.03;99.76;98773.38;5067926;28;20050;-70
2022/04/14 02:28:02;;;;;;;7.82;4.28;;;;;;;7.97;100.00;98782.22;5065371;28;20037;-69
2022/04/14 02:30:27;;;;;;;10.65;4.45;;;;;;;8.08;100.00;98805.16;5062358;28;20024;-69
2022/04/14 02:32:52;;;;;;;9.00;4.90;;;;;;;8.00;100.00;98803.41;5075000;28;20477;-69
2022/04/14 02:35:17;;;;;;;11.25;4.78;;;;;;;7.91;100.00;98809.88;5067133;28;20030;-69
2022/04/14 02:37:43;;;;;;;12.27;3.95;;;;;;;8.03;100.00;98810.28;5075673;28;20096;-69
2022/04/14 02:40:09;;;;;;;8.40;3.63;;;;;;;7.95;100.00;98815.75;5072790;28;20051;-69
2022/04/14 02:42:34;;;;;;;8.60;4.25;;;;;;;7.80;100.00;98810.38;5069783;28;20051;-69
2022/04/14 02:44:59;;;;;;;7.05;3.72;;;;;;;7.79;100.00;98811.41;5068415;28;20059;-69
2022/04/14 02:47:25;;;;;;;8.35;4.22;;;;;;;7.62;100.00;98783.78;5064652;28;20062;-69
2022/04/14 02:49:51;;;;;;;8.02;3.90;;;;;;;7.80;100.00;98815.75;5068551;28;20023;-69
2022/04/14 02:52:16;;;;;;;7.00;4.50;;;;;;;7.69;100.00;98804.41;5067833;28;20498;-69
2022/04/14 02:54:42;;;;;;;7.05;3.75;;;;;;;7.82;100.00;98813.72;5067700;28;20494;-68
2022/04/14 02:57:08;;;;;;;8.35;4.25;;;;;;;7.91;100.00;98823.34;5055646;28;20486;-69
2022/04/14 02:59:34;;;;;;;7.95;3.72;;;;;;;7.73;100.00;98804.03;5081736;28;20115;-69
2022/04/14 03:02:00;;;;;;;5.93;3.65;;;;;;;7.73;100.00;98812.97;5072535;28;20111;-69
2022/04/14 03:04:26;;;;;;;8.75;3.42;;;;;;;7.84;100.00;98811.69;5062267;28;20036;-69
2022/04/14 03:06:52;;;;;;;7.90;3.80;;;;;;;7.84;100.00;98817.06;5066131;28;20077;-68
2022/04/14 03:09:17;;;;;;;12.65;4.22;;;;;;;7.66;100.00;98804.78;5067251;28;20024;-69
2022/04/14 03:11:43;;;;;;;7.25;3.47;;;;;;;7.69;100.00;98828.66;5086933;28;20031;-69
2022/04/14 03:14:08;;;;;;;8.15;4.45;;;;;;;7.66;100.00;98822.81;5064346;28;20049;-70
2022/04/14 03:16:33;;;;;;;6.88;3.78;;;;;;;7.57;100.00;98803.22;5071541;28;20119;-68
2022/04/14 03:18:59;;;;;;;7.55;4.30;;;;;;;7.61;100.00;98811.75;5061871;28;20025;-70
2022/04/14 03:21:24;;;;;;;8.05;4.80;;;;;;;7.37;100.00;98791.31;5081772;28;20028;-73
2022/04/14 03:23:50;;;;;;;6.00;3.60;;;;;;;7.47;100.00;98821.50;5061789;28;20516;-76
2022/04/14 03:26:15;;;;;;;6.57;3.92;;;;;;;7.51;100.00;98830.03;5062139;28;20051;-73
2022/04/14 03:28:41;;;;;;;10.60;4.53;;;;;;;7.43;100.00;98829.06;5064752;28;20028;-72
2022/04/14 03:31:06;;;;;;;8.75;4.75;;;;;;;7.27;100.00;98812.25;5068944;28;20500;-73
2022/04/14 03:33:32;;;;;;;6.50;4.20;;;;;;;7.02;100.00;98794.47;5068432;28;20099;-74
2022/04/14 03:35:57;;;;;;;7.28;4.22;;;;;;;7.07;100.00;98811.91;5065572;28;20036;-73
2022/04/14 03:38:23;;;;;;;8.45;4.47;;;;;;;7.12;100.00;98836.41;5071453;28;20024;-74
2022/04/14 03:40:48;;;;;;;10.20;4.68;;;;;;;6.89;100.00;98829.19;5071508;28;20501;-74
2022/04/14 03:43:16;;;;;;;7.13;5.07;;;;;;;6.70;100.00;98808.13;5067490;28;20016;-71
2022/04/14 03:45:41;;;;;;;11.82;5.55;;;;;;;6.75;100.00;98830.78;5088695;28;20056;-73
2022/04/14 03:48:06;;;;;;;14.38;5.47;;;;;;;6.69;100.00;98830.69;5066524;28;20055;-73
2022/04/14 03:50:32;;;;;;;8.82;4.93;;;;;;;7.07;100.00;98841.50;5072267;28;20032;-72
2022/04/14 03:52:57;;;;;;;8.07;4.72;;;;;;;7.02;100.00;98829.44;5062788;28;20628;-75
2022/04/14 03:55:22;;;;;;;12.50;5.65;;;;;;;6.99;100.00;98793.97;5068853;28;20028;-74
2022/04/14 03:57:48;;;;;;;8.05;5.03;;;;;;;7.23;100.00;98839.53;5085838;28;20028;-70
2022/04/14 04:00:13;;;;;;;11.38;5.90;;;;;;;6.97;100.00;98810.31;5067605;28;20107;-69
2022/04/14 04:02:39;;;;;;;9.50;4.70;;;;;;;7.03;100.00;98843.72;5061338;28;20548;-70
2022/04/14 04:05:05;;;;;;;8.23;5.10;;;;;;;7.04;100.00;98840.00;5062326;28;20451;-67
2022/04/14 04:07:30;;;;;;;6.53;4.82;;;;;;;7.13;100.00;98838.09;5067986;28;20087;-67
2022/04/14 04:09:56;;;;;;;7.15;4.55;;;;;;;7.06;100.00;98810.25;5067901;28;20469;-67
2022/04/14 04:12:21;;;;;;;10.32;4.90;;;;;;;6.84;100.00;98796.63;5074032;28;20035;-71
2022/04/14 04:14:48;;;;;;;10.02;5.00;;;;;;;7.07;100.00;98831.56;5069807;28;20462;-70
2022/04/14 04:17:14;;;;;;;8.18;4.28;;;;;;;6.98;100.00;98840.72;5067032;28;20052;-69
2022/04/14 04:19:39;;;;;;;7.88;4.68;;;;;;;6.82;100.00;98813.97;5055893;28;20056;-71
2022/04/14 04:22:06;;;;;;;10.02;4.53;;;;;;;6.94;100.00;98839.41;5067898;28;20111;-69
2022/04/14 04:24:31;;;;;;;9.82;4.00;;;;;;;6.94;100.00;98848.31;5063849;28;20097;-67
2022/04/14 04:26:57;;;;;;;11.43;4.47;;;;;;;6.90;100.00;98838.09;5078868;28;20425;-67
2022/04/14 04:29:22;;;;;;;8.82;4.40;;;;;;;6.98;100.00;98854.19;5067165;28;20029;-72
2022/04/14 04:31:47;;;;;;;9.40;4.20;;;;;;;6.69;100.00;98826.13;5080592;28;20024;-70
2022/04/14 04:34:13;;;;;;;7.57;4.30;;;;;;;6.67;100.00;98843.44;5059866;28;20076;-69
2022/04/14 04:36:38;;;;;;;11.95;5.40;;;;;;;6.78;100.00;98869.94;5071987;28;20441;-70
2022/04/14 04:39:04;;;;;;;8.07;4.90;;;;;;;6.85;100.00;98862.84;5073398;28;20028;-69
2022/04/14 04:41:30;;;;;;;8.48;4.78;;;;;;;6.84;100.00;98871.94;5072302;28;20020;-69
2022/04/14 04:43:56;;;;;;;7.55;4.88;;;;;;;6.89;100.00;98850.72;5068243;28;20054;-74
2022/04/14 04:46:21;;;;;;;8.07;4.53;;;;;;;7.03;100.00;98873.31;5070347;28;20029;-69
2022/04/14 04:48:46;;;;;;;9.40;4.68;;;;;;;6.99;100.00;98861.22;5067070;28;20033;-69
2022/04/14 04:51:12;;;;;;;8.20;4.30;;;;;;;7.15;100.00;98871.88;5063932;28;20588;-71
2022/04/14 04:53:37;;;;;;;9.70;4.60;;;;;;;7.23;100.00;98873.66;5068831;28;20023;-73
2022/04/14 04:56:02;;;;;;;7.40;4.32;;;;;;;7.30;100.00;98887.22;5075928;28;20123;-69
2022/04/14 04:58:28;;;;;;;7.55;4.35;;;;;;;7.27;100.00;98880.34;5090052;28;20031;-67
2022/04/14 05:00:53;;;;;;;8.52;4.55;;;;;;;7.38;100.00;98892.53;5066383;28;20398;-70
2022/04/14 05:03:19;;;;;;;7.60;4.70;;;;;;;7.40;100.00;98887.81;5064214;28;20025;-68
2022/04/14 05:05:44;;;;;;;6.97;4.55;;;;;;;7.50;100.00;98876.81;5056366;28;20029;-69
2022/04/14 05:08:09;;;;;;;8.05;4.47;;;;;;;7.64;99.74;98895.69;5065290;28;20032;-68
2022/04/14 05:10:35;;;;;;;8.95;4.25;;;;;;;7.82;99.88;98905.28;5072397;28;20558;-68
2022/04/14 05:13:01;;;;;;;6.85;4.63;;;;;;;7.91;99.46;98901.47;5069468;28;20025;-71
2022/04/14 05:15:26;;;;;;;9.02;4.68;;;;;;;7.80;98.96;98878.53;5067952;28;20024;-71
2022/04/14 05:17:52;;;;;;;7.50;4.72;;;;;;;8.21;98.10;98907.75;5072368;28;20481;-71
2022/04/14 05:20:17;;;;;;;10.02;4.80;;;;;;;8.26;94.29;98889.16;5074952;28;20206;-68
2022/04/14 05:22:43;;;;;;;10.60;4.95;;;;;;;8.52;93.12;98912.97;5062127;28;20047;-65
2022/04/14 05:25:08;;;;;;;11.05;5.13;;;;;;;8.56;92.67;98910.72;5071120;28;20393;-66
2022/04/14 05:27:34;;;;;;;13.88;4.93;;;;;;;8.52;91.78;98894.09;5068664;28;20098;-71
2022/04/14 05:29:59;;;;;;;7.40;4.70;;;;;;;8.83;90.99;98917.31;5068557;28;20021;-72
2022/04/14 05:32:25;;;;;;;8.73;4.82;;;;;;;8.98;89.91;98896.50;5084202;28;20120;-72
2022/04/14 05:34:50;;;;;;;12.05;4.70;;;;;;;9.41;88.33;98915.44;5074610;28;20030;-64
2022/04/14 05:37:15;;;;;;;10.10;4.32;;;;;;;9.62;87.44;98917.28;5060110;28;20474;-64
2022/04/14 05:39:40;;;;;;;8.30;4.28;;;;;;;9.79;86.62;98917.81;5067378;28;20034;-64
2022/04/14 05:42:06;;;;;;;8.82;4.15;;;;;;;9.97;85.30;98901.13;5071929;28;20034;-65
2022/04/14 05:44:31;;;;;;;13.68;4.22;;;;;;;10.25;83.45;98928.16;5074933;28;20086;-64
2022/04/14 05:46:56;;;;;;;10.88;4.40;;;;;;;10.73;80.92;98920.09;5078878;28;20077;-65
2022/04/14 05:49:22;;;;;;;7.63;4.30;;;;;;;11.76;76.87;98919.09;5064083;28;20021;-64
2022/04/14 05:51:47;;;;;;;13.68;4.35;;;;;;;13.00;70.78;98917.41;5060539;28;20035;-65
2022/04/14 05:54:14;;;;;;;7.97;3.90;;;;;;;14.50;64.48;98922.97;5061444;28;20020;-65
2022/04/14 05:56:40;;;;;;;12.98;3.78;;;;;;;15.69;60.04;98900.69;5064888;28;20490;-65
2022/04/14 05:59:05;;;;;;;12.70;3.80;;;;;;;16.26;58.30;98922.00;5058246;28;20025;-72
2022/04/14 06:01:31;;;;;;;7.03;3.65;;;;;;;16.66;55.22;98894.75;5058216;28;20024;-71
2022/04/14 06:03:56;;;;;;;8.75;4.47;;;;;;;17.35;53.41;98910.41;5062857;28;20029;-67
2022/04/14 06:06:21;;;;;;;8.48;3.90;;;;;;;17.30;54.20;98917.41;5062285;28;20024;-67
2022/04/14 06:08:47;;;;;;;7.85;3.90;;;;;;;18.03;51.62;98920.38;5055867;28;20020;-66
2022/04/14 06:11:12;;;;;;;10.15;3.63;;;;;;;18.18;51.94;98920.63;5069413;28;20071;-71
2022/04/14 06:13:37;;;;;;;10.93;4.25;;;;;;;18.33;51.10;98920.00;5074344;28;20078;-70
2022/04/14 06:16:03;;;;;;;10.10;3.95;;;;;;;18.73;51.16;98932.66;5070182;28;20017;-70
2022/04/14 06:18:29;;;;;;;8.68;3.42;;;;;;;19.23;48.66;98930.81;5080593;28;20032;-70
2022/04/14 06:20:54;;;;;;;8.88;3.90;;;;;;;20.22;47.68;98932.34;5079612;28;20172;-68
2022/04/14 06:23:20;;;;;;;9.40;3.88;;;;;;;20.52;46.50;98903.44;5067540;28;20049;-67
2022/04/14 06:25:49;;;;;;;10.25;3.80;;;;;;;19.97;46.45;98922.00;5084804;28;20040;-67
2022/04/14 06:28:16;;;;;;;6.43;3.83;;;;;;;19.89;46.54;98925.22;5070250;28;20029;-67
2022/04/14 06:30:42;;;;;;;10.43;5.53;;;;;;;19.46;46.42;98933.25;5058209;28;20123;-67
2022/04/14 06:33:07;;;;;;;13.75;4.63;;;;;;;19.54;45.77;98942.94;5069453;28;20104;-68
2022/04/14 06:35:33;;;;;;;11.43;4.63;;;;;;;19.84;45.51;98944.41;5070322;28;20017;-69
2022/04/14 06:37:58;;;;;;;10.55;4.75;;;;;;;20.29;44.21;98932.94;5056599;28;20140;-69
2022/04/14 06:40:24;;;;;;;11.63;5.13;;;;;;;20.76;43.62;98939.59;5070975;28;20539;-68
2022/04/14 06:42:49;;;;;;;8.35;4.45;;;;;;;20.71;43.89;98918.41;5070826;28;20032;-66
2022/04/14 06:45:19;;;;;;;9.70;4.63;;;;;;;21.19;42.37;98945.84;5067741;28;20028;-66
2022/04/14 06:47:44;;;;;;;11.48;5.05;;;;;;;22.82;40.30;98941.56;5068042;28;20037;-66
2022/04/14 06:50:10;;;;;;;13.48;5.65;;;;;;;23.53;39.75;98938.53;5064755;28;20086;-66
2022/04/14 06:52:39;;;;;;;10.57;6.28;;;;;;;23.74;39.22;98930.16;5066910;28;20056;-65
2022/04/14 06:55:09;;;;;;;15.13;5.85;;;;;;;24.02;38.75;98932.13;5078679;28;20029;-65
2022/04/14 06:57:34;;;;;;;10.85;6.22;;;;;;;24.43;37.04;98942.03;5068512;28;20524;-66
2022/04/14 07:00:00;;;;;;;14.60;6.63;;;;;;;24.46;37.01;98931.22;5061295;28;20040;-66
2022/04/14 07:02:26;;;;;;;12.85;6.88;;;;;;;24.77;37.57;98930.09;5067499;28;20032;-72
2022/04/14 07:04:52;;;;;;;18.20;7.45;;;;;;;24.97;37.18;98937.31;5052930;28;20041;-68
2022/04/14 07:07:17;;;;;;;12.27;7.30;;;;;;;25.32;37.03;98912.00;5069652;28;20478;-66
2022/04/14 07:09:43;;;;;;;10.90;7.78;;;;;;;25.23;36.90;98932.31;5064788;28;20059;-68
2022/04/14 07:12:08;;;;;;;14.15;8.60;;;;;;;24.70;37.61;98922.94;5067445;28;20489;-68
2022/04/14 07:14:34;;;;;;;19.13;8.57;;;;;;;25.00;37.22;98923.72;5068880;28;20044;-69
2022/04/14 07:17:00;;;;;;;11.18;7.13;;;;;;;25.43;36.12;98945.91;5072912;28;20063;-71
2022/04/14 07:19:26;;;;;;;11.57;7.57;;;;;;;25.39;37.18;98931.03;5070439;28;20070;-71
2022/04/14 07:21:52;;;;;;;14.55;9.15;;;;;;;25.36;37.25;98935.22;5067372;28;20119;-70
2022/04/14 07:24:17;;;;;;;18.50;9.23;;;;;;;25.93;36.65;98949.09;5066827;28;20127;-66
2022/04/14 07:26:43;;;;;;;13.07;8.88;;;;;;;26.80;35.99;98946.78;5073115;28;20539;-71
2022/04/14 07:29:08;;;;;;;12.15;8.23;;;;;;;27.06;34.50;98952.66;5079751;28;20025;-66
2022/04/14 07:31:35;;;;;;;14.77;9.15;;;;;;;27.59;33.86;98954.91;5060403;28;20089;-66
2022/04/14 07:34:02;;;;;;;17.60;9.55;;;;;;;27.18;35.06;98953.00;5056913;28;20107;-70
2022/04/14 07:36:27;;;;;;;14.93;8.60;;;;;;;27.78;34.59;98965.06;5060559;28;20032;-67
2022/04/14 07:38:52;;;;;;;13.55;9.20;;;;;;;27.11;35.38;98947.00;5057730;28;20071;-67
2022/04/14 07:41:18;;;;;;;16.45;9.93;;;;;;;27.69;34.94;98957.47;5066318;28;20032;-67
2022/04/14 07:43:43;;;;;;;14.38;8.77;;;;;;;27.96;33.99;98966.88;5063872;28;20474;-65
2022/04/14 07:46:09;;;;;;;18.90;8.88;;;;;;;26.80;35.99;98969.84;5075946;28;20059;-69
2022/04/14 07:48:34;;;;;;;13.13;7.85;;;;;;;27.49;35.79;98963.47;5054621;28;20024;-68
2022/04/14 07:51:01;;;;;;;13.68;7.38;;;;;;;28.09;34.44;98966.00;5186915;22;20064;-69
2022/04/14 07:53:30;;;;;;;19.33;8.25;;;;;;;27.95;34.65;98952.13;5027799;28;20041;-66
2022/04/14 07:55:55;;;;;;;13.38;7.30;;;;;;;27.28;35.79;98974.19;5027258;28;20041;-70
2022/04/14 07:58:20;;;;;;;17.60;8.38;;;;;;;25.98;38.28;98971.19;5025171;28;20037;-67
2022/04/14 08:00:46;;;;;;;11.77;7.90;;;;;;;26.29;37.84;98959.59;5010203;28;20018;-67
2022/04/14 08:03:12;;;;;;;16.77;7.40;;;;;;;27.82;35.65;98966.09;5022707;28;20026;-67
2022/04/14 08:05:41;;;;;;;12.20;8.32;;;;;;;28.61;34.15;98976.69;5017020;28;20032;-67
2022/04/14 08:08:15;;;;;;;13.60;8.18;;;;;;;29.32;33.03;98973.09;5024896;28;20120;-67
2022/04/14 08:10:43;;;;;;;12.65;8.40;;;;;;;29.76;32.32;98980.44;5014248;28;20052;-67
2022/04/14 08:13:08;;;;;;;19.55;9.30;;;;;;;30.07;32.58;98982.25;5028458;28;20033;-67
2022/04/14 08:15:34;;;;;;;15.98;8.30;;;;;;;30.34;31.55;98983.94;5032392;28;20018;-69
2022/04/14 08:18:00;;;;;;;15.65;8.63;;;;;;;29.97;31.92;98966.66;5013347;28;20108;-70
2022/04/14 08:20:27;;;;;;;13.90;8.27;;;;;;;30.07;31.74;98982.25;5028324;28;20141;-69
2022/04/14 08:22:57;;;;;;;12.63;7.93;;;;;;;29.43;32.90;98985.59;5020809;28;20022;-70
2022/04/14 08:25:33;;;;;;;11.80;8.20;;;;;;;28.79;33.97;98986.81;5022092;28;20022;-69
2022/04/14 08:28:01;;;;;;;18.02;9.07;;;;;;;30.18;32.62;98980.78;5028946;28;20070;-69
2022/04/14 08:30:29;;;;;;;18.15;9.35;;;;;;;28.50;34.03;98992.84;5023601;28;20026;-69
2022/04/14 08:32:55;;;;;;;12.77;8.83;;;;;;;28.86;33.01;98983.53;5027792;28;20036;-70
2022/04/14 08:35:21;;;;;;;13.75;8.48;;;;;;;28.93;32.76;98995.06;5019471;28;20030;-70
2022/04/14 08:37:48;;;;;;;18.35;9.50;;;;;;;28.59;34.18;98990.94;5027546;28;20048;-72
2022/04/14 08:40:18;;;;;;;12.35;8.25;;;;;;;29.15;33.20;98977.47;5016350;28;20056;-71
2022/04/14 08:43:05;;;;;;;15.15;8.75;;;;;;;26.60;36.50;98976.56;5007559;28;20060;-70
2022/04/14 08:45:36;;;;;;;13.93;9.13;;;;;;;28.59;33.92;99002.06;5024639;28;20036;-72
2022/04/14 08:48:03;;;;;;;15.18;8.88;;;;;;;28.13;34.32;98986.47;5029515;28;20105;-73
2022/04/14 08:50:29;;;;;;;15.27;7.50;;;;;;;29.14;33.61;98977.81;5020845;28;20112;-74
2022/04/14 08:52:55;;;;;;;15.48;8.38;;;;;;;29.92;31.64;98984.41;5017489;28;20034;-66
2022/04/14 08:55:21;;;;;;;12.35;7.45;;;;;;;31.15;29.98;98988.66;5018963;28;20033;-67
2022/04/14 08:57:46;;;;;;;13.02;7.47;;;;;;;32.21;28.71;98981.28;5023243;28;20033;-69
2022/04/14 09:00:18;;;;;;;11.88;7.78;;;;;;;32.45;28.09;98978.56;5022736;28;20029;-69
2022/04/14 09:02:49;;;;;;;12.70;8.02;;;;;;;31.59;29.25;98974.47;5020764;28;20095;-69
2022/04/14 09:05:17;;;;;;;10.93;7.13;;;;;;;33.34;28.07;98964.03;5021865;28;20033;-69
2022/04/14 09:07:52;;;;;;;15.27;7.03;;;;;;;32.96;28.07;98976.38;5022796;28;20609;-67
2022/04/14 09:10:20;;;;;;;8.57;5.90;;;;;;;33.57;27.30;98981.25;5023561;28;20075;-67
2022/04/14 09:12:49;;;;;;;;;;;;;;;33.65;27.01;98979.47;5031058;28;20601;-69
2022/04/14 09:15:15;;;;;;;17.88;8.43;;;;;;;31.26;28.70;98983.50;5023493;28;19913;-69
2022/04/14 09:17:40;;;;;;;13.38;7.00;;;;;;;30.96;30.34;98988.25;5025113;28;20084;-69
2022/04/14 09:20:32;;;;;;;15.35;6.88;;;;;;;31.32;30.04;98984.97;5024433;28;20037;-68
2022/04/14 09:23:25;;;;;;;9.52;5.97;;;;;;;32.29;28.97;98991.56;5025945;28;20108;-68
2022/04/14 09:26:13;;;;;;;12.10;6.20;;;;;;;31.82;28.01;98989.78;5028515;28;20502;-67
2022/04/14 09:28:40;;;;;;;11.75;6.38;;;;;;;31.70;28.01;98972.91;5030052;28;20463;-69
2022/04/14 09:31:11;;;;;;;9.18;5.10;;;;;;;32.55;27.45;98985.75;5019864;28;20067;-70
2022/04/14 09:33:44;;;;;;;9.27;5.00;;;;;;;31.80;27.61;98980.06;5025825;28;20094;-69
2022/04/14 09:36:20;;;;;;;10.63;5.03;;;;;;;32.37;27.43;98989.84;5022940;28;20037;-68
2022/04/14 09:38:59;;;;;;;11.65;4.20;;;;;;;33.08;26.27;98989.63;5027942;28;20026;-69
2022/04/14 09:41:33;;;;;;;;;;;;;;;32.61;25.36;98978.75;5025408;28;20033;-69
2022/04/14 09:44:10;;;;;;;10.20;4.43;;;;;;;32.97;25.77;98968.78;5026875;28;20007;-68
2022/04/14 09:46:37;;;;;;;6.65;3.95;;;;;;;33.16;24.92;98982.25;5029008;28;20039;-69
2022/04/14 09:49:09;;;;;;;6.53;4.85;;;;;;;31.52;27.15;98982.56;5030256;28;20061;-69
2022/04/14 09:51:38;;;;;;;13.07;4.90;;;;;;;32.45;26.79;98986.16;5002920;28;20033;-69
2022/04/14 09:54:04;;;;;;;12.15;4.70;;;;;;;33.14;26.38;98978.97;5018201;28;20029;-69
2022/04/14 09:56:46;;;;;;;10.50;5.75;;;;;;;31.65;27.01;98971.16;5023291;28;20083;-69
2022/04/14 09:59:13;;;;;;;9.40;5.22;;;;;;;32.96;26.26;98982.00;5022145;28;20051;-73
2022/04/14 10:01:38;;;;;;;13.35;5.60;;;;;;;32.93;25.52;98973.44;5032619;28;20089;-70
2022/04/14 10:04:05;;;;;;;8.98;5.30;;;;;;;33.44;25.93;98973.97;5015633;28;20129;-71
2022/04/14 10:06:30;;;;;;;10.38;4.68;;;;;;;33.79;26.13;98968.69;5029213;28;20028;-72
2022/04/14 10:08:56;;;;;;;11.65;5.90;;;;;;;32.55;26.01;98962.53;5029071;28;20703;-73
2022/04/14 10:11:29;;;;;;;11.65;5.70;;;;;;;30.57;27.42;98937.06;5025264;28;20060;-71
2022/04/14 10:14:09;;;;;;;9.65;4.93;;;;;;;32.48;26.81;98960.28;5011408;28;20033;-75
2022/04/14 10:16:37;;;;;;;9.05;5.88;;;;;;;32.01;27.68;98958.53;5021208;28;20026;-68
2022/04/14 10:19:02;;;;;;;6.63;4.70;;;;;;;33.02;26.97;98948.16;5025219;28;20513;-68
2022/04/14 10:21:28;;;;;;;12.03;5.67;;;;;;;32.62;26.36;98960.78;5020166;28;20029;-68
2022/04/14 10:23:53;;;;;;;9.25;4.65;;;;;;;33.55;26.12;98951.91;5022956;28;20271;-68
2022/04/14 10:26:21;;;;;;;15.20;6.47;;;;;;;32.43;26.03;98966.06;5009680;28;20037;-68
2022/04/14 10:28:48;;;;;;;9.95;6.20;;;;;;;32.23;26.30;98962.97;5028973;28;20033;-68
2022/04/14 10:31:17;;;;;;;8.83;6.27;;;;;;;30.74;28.97;98967.75;5001990;28;20126;-68
2022/04/14 10:33:45;;;;;;;10.63;5.43;;;;;;;31.54;27.45;98939.13;5019399;28;20295;-68
2022/04/14 10:36:10;;;;;;;11.65;5.22;;;;;;;32.60;27.61;98962.31;5011297;28;20060;-68
2022/04/14 10:38:37;;;;;;;10.07;5.88;;;;;;;32.16;26.61;98968.28;5019731;28;20487;-68
2022/04/14 10:41:12;;;;;;;10.25;5.53;;;;;;;32.70;27.09;98971.09;5023443;28;20021;-68
2022/04/14 10:43:41;;;;;;;14.43;5.50;;;;;;;32.08;26.65;98963.59;5012639;28;20017;-68
2022/04/14 10:46:06;;;;;;;10.75;5.80;;;;;;;32.09;26.41;98960.47;5026356;28;20057;-68
2022/04/14 10:48:34;;;;;;;8.68;5.18;;;;;;;32.41;26.56;98965.59;5022660;28;20065;-68
2022/04/14 10:51:29;;;;;;;12.43;5.95;;;;;;;32.29;27.76;98963.56;5018488;28;20029;-68
2022/04/14 10:54:00;;;;;;;10.05;5.80;;;;;;;32.44;26.95;98964.91;5042275;28;20033;-68
2022/04/14 10:56:34;;;;;;;10.57;4.53;;;;;;;33.14;25.62;98959.34;5046904;28;20063;-68
2022/04/14 10:59:00;;;;;;;8.63;4.07;;;;;;;33.48;25.49;98952.44;5039951;28;20060;-68
2022/04/14 11:04:42;;;;;;;9.77;4.32;;;;;;;33.50;25.56;98949.31;5039837;28;20118;-67
2022/04/14 11:07:13;;;;;;;8.27;4.00;;;;;;;33.70;25.17;98942.75;5022078;28;20038;-67
2022/04/14 11:09:41;;;;;;;9.57;3.97;;;;;;;33.88;25.38;98948.91;5029551;28;20029;-75
2022/04/14 11:12:14;;;;;;;6.85;3.72;;;;;;;33.30;25.11;98951.06;4998348;28;20079;-74
2022/04/14 11:14:54;;;;;;;6.97;3.83;;;;;;;33.67;25.56;98942.63;5032191;28;20021;-75
2022/04/14 11:17:37;;;;;;;9.63;3.95;;;;;;;34.24;24.96;98952.75;5014449;28;20060;-75
2022/04/14 11:20:24;;;;;;;9.48;4.40;;;;;;;33.41;24.97;98957.03;5024212;28;20030;-75
2022/04/14 11:23:15;;;;;;;10.23;4.68;;;;;;;31.89;27.78;98955.66;5017955;28;20398;-75
2022/04/14 11:25:41;;;;;;;10.18;4.55;;;;;;;32.22;27.24;98966.09;5016959;28;20026;-73
2022/04/14 11:28:25;;;;;;;11.18;4.18;;;;;;;33.07;27.19;98957.16;5022099;28;20036;-75
2022/04/14 11:30:58;;;;;;;8.75;4.30;;;;;;;33.74;25.09;98952.09;5030240;28;20031;-74
2022/04/14 11:33:29;;;;;;;8.57;4.30;;;;;;;32.18;26.22;98956.78;5022917;28;20025;-68
2022/04/14 11:36:18;;;;;;;8.07;4.43;;;;;;;31.81;28.01;98959.34;5024103;28;20035;-75